sensor_id;sensor_type;location;lat;lon;timestamp;P1;durP1;ratioP1;P2;durP2;ratioP2
68247;SDS011;55064;49.636;12.164;2023-06-22T00:01:02;11.23;;;5.57;;
68247;SDS011;55064;49.636;12.164;2023-06-22T00:03:28;10.77;;;5.53;;
68247;SDS011;55064;49.636;12.164;2023-06-22T00:05:54;12.30;;;5.22;;
68247;SDS011;55064;49.636;12.164;2023-06-22T00:08:21;11.43;;;5.50;;
68247;SDS011;55064;49.636;12.164;2023-06-22T00:10:47;10.47;;;5.90;;
68247;SDS011;55064;49.636;12.164;2023-06-22T00:13:13;10.20;;;5.75;;
68247;SDS011;55064;49.636;12.164;2023-06-22T00:15:43;12.23;;;5.85;;
68247;SDS011;55064;49.636;12.164;2023-06-22T00:18:10;9.80;;;5.85;;
68247;SDS011;55064;49.636;12.164;2023-06-22T00:20:42;11.80;;;5.77;;
68247;SDS011;55064;49.636;12.164;2023-06-22T00:23:19;11.93;;;5.75;;
68247;SDS011;55064;49.636;12.164;2023-06-22T00:25:53;13.50;;;5.70;;
68247;SDS011;55064;49.636;12.164;2023-06-22T00:28:20;10.90;;;5.85;;
68247;SDS011;55064;49.636;12.164;2023-06-22T00:30:49;11.60;;;5.53;;
68247;SDS011;55064;49.636;12.164;2023-06-22T00:33:16;9.90;;;5.60;;
68247;SDS011;55064;49.636;12.164;2023-06-22T00:35:42;11.23;;;6.35;;
68247;SDS011;55064;49.636;12.164;2023-06-22T00:38:09;10.85;;;6.20;;
68247;SDS011;55064;49.636;12.164;2023-06-22T00:40:36;9.85;;;6.00;;
68247;SDS011;55064;49.636;12.164;2023-06-22T00:43:05;13.50;;;6.43;;
68247;SDS011;55064;49.636;12.164;2023-06-22T00:45:31;14.65;;;5.88;;
68247;SDS011;55064;49.636;12.164;2023-06-22T00:48:01;13.80;;;5.82;;
68247;SDS011;55064;49.636;12.164;2023-06-22T00:50:32;10.95;;;5.90;;
68247;SDS011;55064;49.636;12.164;2023-06-22T00:53:05;10.30;;;5.40;;
68247;SDS011;55064;49.636;12.164;2023-06-22T00:55:36;10.33;;;5.03;;
68247;SDS011;55064;49.636;12.164;2023-06-22T00:58:04;10.13;;;5.22;;
68247;SDS011;55064;49.636;12.164;2023-06-22T01:00:35;13.88;;;6.57;;
68247;SDS011;55064;49.636;12.164;2023-06-22T01:03:02;9.63;;;5.93;;
68247;SDS011;55064;49.636;12.164;2023-06-22T01:05:36;12.60;;;6.03;;
68247;SDS011;55064;49.636;12.164;2023-06-22T01:08:16;9.93;;;5.40;;
68247;SDS011;55064;49.636;12.164;2023-06-22T01:11:17;11.88;;;5.43;;
68247;SDS011;55064;49.636;12.164;2023-06-22T01:16:30;11.15;;;5.95;;
68247;SDS011;55064;49.636;12.164;2023-06-22T01:19:13;9.75;;;5.20;;
68247;SDS011;55064;49.636;12.164;2023-06-22T01:22:01;9.07;;;5.67;;
68247;SDS011;55064;49.636;12.164;2023-06-22T01:24:35;9.68;;;5.55;;
68247;SDS011;55064;49.636;12.164;2023-06-22T01:30:11;11.70;;;4.95;;
68247;SDS011;55064;49.636;12.164;2023-06-22T01:32:39;10.25;;;5.30;;
68247;SDS011;55064;49.636;12.164;2023-06-22T01:35:09;11.00;;;5.20;;
68247;SDS011;55064;49.636;12.164;2023-06-22T01:37:38;11.63;;;5.38;;
68247;SDS011;55064;49.636;12.164;2023-06-22T01:40:06;10.73;;;5.47;;
68247;SDS011;55064;49.636;12.164;2023-06-22T01:42:34;12.85;;;5.22;;
68247;SDS011;55064;49.636;12.164;2023-06-22T01:45:02;10.45;;;5.18;;
68247;SDS011;55064;49.636;12.164;2023-06-22T01:47:29;11.63;;;4.90;;
68247;SDS011;55064;49.636;12.164;2023-06-22T01:49:55;11.30;;;5.68;;
68247;SDS011;55064;49.636;12.164;2023-06-22T01:52:22;9.93;;;5.80;;
68247;SDS011;55064;49.636;12.164;2023-06-22T01:54:49;12.23;;;6.63;;
68247;SDS011;55064;49.636;12.164;2023-06-22T01:57:15;12.97;;;6.07;;
68247;SDS011;55064;49.636;12.164;2023-06-22T01:59:45;11.10;;;7.03;;
68247;SDS011;55064;49.636;12.164;2023-06-22T02:02:16;12.88;;;6.85;;
68247;SDS011;55064;49.636;12.164;2023-06-22T02:05:20;11.23;;;6.90;;
68247;SDS011;55064;49.636;12.164;2023-06-22T02:07:42;11.53;;;6.20;;
68247;SDS011;55064;49.636;12.164;2023-06-22T02:10:14;10.98;;;6.55;;
68247;SDS011;55064;49.636;12.164;2023-06-22T02:12:45;11.50;;;6.43;;
68247;SDS011;55064;49.636;12.164;2023-06-22T02:15:13;11.25;;;6.32;;
68247;SDS011;55064;49.636;12.164;2023-06-22T02:17:40;11.60;;;5.85;;
68247;SDS011;55064;49.636;12.164;2023-06-22T02:20:13;10.47;;;6.50;;
68247;SDS011;55064;49.636;12.164;2023-06-22T02:22:40;10.73;;;5.70;;
68247;SDS011;55064;49.636;12.164;2023-06-22T02:25:06;11.05;;;6.13;;
68247;SDS011;55064;49.636;12.164;2023-06-22T02:27:32;12.30;;;5.95;;
68247;SDS011;55064;49.636;12.164;2023-06-22T02:29:58;10.97;;;6.40;;
68247;SDS011;55064;49.636;12.164;2023-06-22T02:32:23;11.02;;;5.90;;
68247;SDS011;55064;49.636;12.164;2023-06-22T02:34:50;11.17;;;5.83;;
68247;SDS011;55064;49.636;12.164;2023-06-22T02:37:17;11.82;;;6.22;;
68247;SDS011;55064;49.636;12.164;2023-06-22T02:39:42;11.02;;;6.18;;
68247;SDS011;55064;49.636;12.164;2023-06-22T02:42:08;11.95;;;5.13;;
68247;SDS011;55064;49.636;12.164;2023-06-22T02:44:35;10.27;;;5.43;;
68247;SDS011;55064;49.636;12.164;2023-06-22T02:47:01;12.25;;;5.70;;
68247;SDS011;55064;49.636;12.164;2023-06-22T02:49:28;12.57;;;6.35;;
68247;SDS011;55064;49.636;12.164;2023-06-22T02:51:54;12.20;;;6.07;;
68247;SDS011;55064;49.636;12.164;2023-06-22T02:54:20;13.13;;;6.17;;
68247;SDS011;55064;49.636;12.164;2023-06-22T02:56:46;10.32;;;5.82;;
68247;SDS011;55064;49.636;12.164;2023-06-22T02:59:11;11.50;;;5.73;;
68247;SDS011;55064;49.636;12.164;2023-06-22T03:01:37;11.00;;;6.50;;
68247;SDS011;55064;49.636;12.164;2023-06-22T03:04:05;12.82;;;5.55;;
68247;SDS011;55064;49.636;12.164;2023-06-22T03:06:33;9.75;;;6.03;;
68247;SDS011;55064;49.636;12.164;2023-06-22T03:09:00;11.43;;;5.77;;
68247;SDS011;55064;49.636;12.164;2023-06-22T03:11:28;10.80;;;6.30;;
68247;SDS011;55064;49.636;12.164;2023-06-22T03:13:56;12.38;;;6.03;;
68247;SDS011;55064;49.636;12.164;2023-06-22T03:16:21;11.48;;;6.30;;
68247;SDS011;55064;49.636;12.164;2023-06-22T03:18:47;10.10;;;5.90;;
68247;SDS011;55064;49.636;12.164;2023-06-22T03:21:13;10.65;;;5.80;;
68247;SDS011;55064;49.636;12.164;2023-06-22T03:23:40;12.80;;;6.40;;
68247;SDS011;55064;49.636;12.164;2023-06-22T03:26:08;12.83;;;5.93;;
68247;SDS011;55064;49.636;12.164;2023-06-22T03:28:35;10.20;;;6.10;;
68247;SDS011;55064;49.636;12.164;2023-06-22T03:31:00;12.15;;;6.47;;
68247;SDS011;55064;49.636;12.164;2023-06-22T03:33:26;11.73;;;6.07;;
68247;SDS011;55064;49.636;12.164;2023-06-22T03:35:53;12.02;;;6.28;;
68247;SDS011;55064;49.636;12.164;2023-06-22T03:38:19;11.50;;;5.95;;
68247;SDS011;55064;49.636;12.164;2023-06-22T03:40:45;12.00;;;6.07;;
68247;SDS011;55064;49.636;12.164;2023-06-22T03:43:11;12.13;;;5.87;;
68247;SDS011;55064;49.636;12.164;2023-06-22T03:45:37;12.05;;;5.90;;
68247;SDS011;55064;49.636;12.164;2023-06-22T03:48:03;13.00;;;6.40;;
68247;SDS011;55064;49.636;12.164;2023-06-22T03:50:29;11.83;;;6.13;;
68247;SDS011;55064;49.636;12.164;2023-06-22T03:52:56;10.98;;;6.32;;
68247;SDS011;55064;49.636;12.164;2023-06-22T03:55:22;10.65;;;6.10;;
68247;SDS011;55064;49.636;12.164;2023-06-22T03:57:48;12.48;;;6.70;;
68247;SDS011;55064;49.636;12.164;2023-06-22T04:00:15;11.03;;;6.43;;
68247;SDS011;55064;49.636;12.164;2023-06-22T04:02:42;12.25;;;7.20;;
68247;SDS011;55064;49.636;12.164;2023-06-22T04:05:11;13.52;;;8.10;;
68247;SDS011;55064;49.636;12.164;2023-06-22T04:07:36;14.50;;;9.18;;
68247;SDS011;55064;49.636;12.164;2023-06-22T04:10:03;16.87;;;10.07;;
68247;SDS011;55064;49.636;12.164;2023-06-22T04:12:29;15.23;;;9.70;;
68247;SDS011;55064;49.636;12.164;2023-06-22T04:14:55;16.50;;;10.13;;
68247;SDS011;55064;49.636;12.164;2023-06-22T04:17:21;16.57;;;9.60;;
68247;SDS011;55064;49.636;12.164;2023-06-22T04:19:49;17.05;;;10.45;;
68247;SDS011;55064;49.636;12.164;2023-06-22T04:22:17;16.40;;;9.90;;
68247;SDS011;55064;49.636;12.164;2023-06-22T04:24:43;17.40;;;10.40;;
68247;SDS011;55064;49.636;12.164;2023-06-22T04:27:21;16.50;;;10.67;;
68247;SDS011;55064;49.636;12.164;2023-06-22T04:29:48;15.27;;;9.23;;
68247;SDS011;55064;49.636;12.164;2023-06-22T04:32:17;14.35;;;9.55;;
68247;SDS011;55064;49.636;12.164;2023-06-22T04:34:43;17.23;;;9.50;;
68247;SDS011;55064;49.636;12.164;2023-06-22T04:37:11;14.80;;;8.73;;
68247;SDS011;55064;49.636;12.164;2023-06-22T04:39:48;14.67;;;9.13;;
68247;SDS011;55064;49.636;12.164;2023-06-22T04:42:17;16.48;;;8.73;;
68247;SDS011;55064;49.636;12.164;2023-06-22T04:44:47;13.98;;;8.65;;
68247;SDS011;55064;49.636;12.164;2023-06-22T04:47:15;14.15;;;8.80;;
68247;SDS011;55064;49.636;12.164;2023-06-22T04:49:42;16.50;;;9.23;;
68247;SDS011;55064;49.636;12.164;2023-06-22T04:52:12;16.83;;;9.00;;
68247;SDS011;55064;49.636;12.164;2023-06-22T04:54:51;13.75;;;8.65;;
68247;SDS011;55064;49.636;12.164;2023-06-22T04:57:38;13.73;;;8.90;;
68247;SDS011;55064;49.636;12.164;2023-06-22T05:00:20;14.20;;;8.82;;
68247;SDS011;55064;49.636;12.164;2023-06-22T05:02:48;15.43;;;9.25;;
68247;SDS011;55064;49.636;12.164;2023-06-22T05:08:04;14.32;;;8.25;;
68247;SDS011;55064;49.636;12.164;2023-06-22T05:10:32;14.55;;;8.68;;
68247;SDS011;55064;49.636;12.164;2023-06-22T05:12:58;13.43;;;8.65;;
68247;SDS011;55064;49.636;12.164;2023-06-22T05:15:26;14.53;;;8.87;;
68247;SDS011;55064;49.636;12.164;2023-06-22T05:17:56;13.13;;;8.70;;
68247;SDS011;55064;49.636;12.164;2023-06-22T05:28:49;15.38;;;10.18;;
68247;SDS011;55064;49.636;12.164;2023-06-22T05:31:17;16.55;;;10.20;;
68247;SDS011;55064;49.636;12.164;2023-06-22T05:33:45;16.05;;;10.18;;
68247;SDS011;55064;49.636;12.164;2023-06-22T05:36:12;16.07;;;10.10;;
68247;SDS011;55064;49.636;12.164;2023-06-22T05:38:37;14.90;;;9.45;;
68247;SDS011;55064;49.636;12.164;2023-06-22T05:41:03;15.32;;;9.80;;
68247;SDS011;55064;49.636;12.164;2023-06-22T05:43:29;15.87;;;9.53;;
68247;SDS011;55064;49.636;12.164;2023-06-22T05:46:00;16.77;;;9.73;;
68247;SDS011;55064;49.636;12.164;2023-06-22T05:48:27;16.67;;;10.17;;
68247;SDS011;55064;49.636;12.164;2023-06-22T05:50:54;13.90;;;10.10;;
68247;SDS011;55064;49.636;12.164;2023-06-22T05:53:26;15.02;;;9.45;;
68247;SDS011;55064;49.636;12.164;2023-06-22T05:55:52;16.20;;;9.90;;
68247;SDS011;55064;49.636;12.164;2023-06-22T05:58:17;15.65;;;10.05;;
68247;SDS011;55064;49.636;12.164;2023-06-22T06:00:43;13.87;;;9.50;;
68247;SDS011;55064;49.636;12.164;2023-06-22T06:03:09;14.40;;;9.50;;
68247;SDS011;55064;49.636;12.164;2023-06-22T06:05:36;14.82;;;9.85;;
68247;SDS011;55064;49.636;12.164;2023-06-22T06:08:03;16.65;;;9.98;;
68247;SDS011;55064;49.636;12.164;2023-06-22T06:10:31;16.90;;;10.48;;
68247;SDS011;55064;49.636;12.164;2023-06-22T06:12:57;14.15;;;9.20;;
68247;SDS011;55064;49.636;12.164;2023-06-22T06:15:23;13.03;;;9.23;;
68247;SDS011;55064;49.636;12.164;2023-06-22T06:17:48;15.67;;;9.40;;
68247;SDS011;55064;49.636;12.164;2023-06-22T06:20:19;13.90;;;8.88;;
68247;SDS011;55064;49.636;12.164;2023-06-22T06:22:46;12.85;;;7.20;;
68247;SDS011;55064;49.636;12.164;2023-06-22T06:25:12;12.43;;;7.18;;
68247;SDS011;55064;49.636;12.164;2023-06-22T06:27:44;12.60;;;6.60;;
68247;SDS011;55064;49.636;12.164;2023-06-22T06:30:11;10.03;;;6.67;;
68247;SDS011;55064;49.636;12.164;2023-06-22T06:32:37;13.50;;;6.40;;
68247;SDS011;55064;49.636;12.164;2023-06-22T06:35:06;11.00;;;6.57;;
68247;SDS011;55064;49.636;12.164;2023-06-22T06:37:33;10.82;;;6.78;;
68247;SDS011;55064;49.636;12.164;2023-06-22T06:40:12;11.30;;;6.95;;
68247;SDS011;55064;49.636;12.164;2023-06-22T06:42:40;10.33;;;6.40;;
68247;SDS011;55064;49.636;12.164;2023-06-22T06:45:41;11.73;;;6.70;;
68247;SDS011;55064;49.636;12.164;2023-06-22T06:48:00;10.60;;;6.18;;
68247;SDS011;55064;49.636;12.164;2023-06-22T06:50:25;12.95;;;6.70;;
68247;SDS011;55064;49.636;12.164;2023-06-22T06:52:51;13.50;;;6.80;;
68247;SDS011;55064;49.636;12.164;2023-06-22T06:55:18;12.07;;;6.20;;
68247;SDS011;55064;49.636;12.164;2023-06-22T06:57:45;10.90;;;7.30;;
68247;SDS011;55064;49.636;12.164;2023-06-22T07:00:13;11.07;;;6.90;;
68247;SDS011;55064;49.636;12.164;2023-06-22T07:02:40;12.38;;;7.35;;
68247;SDS011;55064;49.636;12.164;2023-06-22T07:05:09;12.73;;;7.05;;
68247;SDS011;55064;49.636;12.164;2023-06-22T07:07:36;15.33;;;6.50;;
68247;SDS011;55064;49.636;12.164;2023-06-22T07:10:02;10.57;;;6.97;;
68247;SDS011;55064;49.636;12.164;2023-06-22T07:12:28;11.77;;;7.10;;
68247;SDS011;55064;49.636;12.164;2023-06-22T07:14:53;10.57;;;6.20;;
68247;SDS011;55064;49.636;12.164;2023-06-22T07:17:19;11.88;;;7.18;;
68247;SDS011;55064;49.636;12.164;2023-06-22T07:19:45;11.17;;;6.50;;
68247;SDS011;55064;49.636;12.164;2023-06-22T07:22:13;11.82;;;6.72;;
68247;SDS011;55064;49.636;12.164;2023-06-22T07:24:39;11.00;;;6.53;;
68247;SDS011;55064;49.636;12.164;2023-06-22T07:27:04;12.17;;;7.83;;
68247;SDS011;55064;49.636;12.164;2023-06-22T07:29:31;12.45;;;7.22;;
68247;SDS011;55064;49.636;12.164;2023-06-22T07:32:00;11.48;;;6.82;;
68247;SDS011;55064;49.636;12.164;2023-06-22T07:34:30;10.77;;;7.30;;
68247;SDS011;55064;49.636;12.164;2023-06-22T07:36:56;10.00;;;6.93;;
68247;SDS011;55064;49.636;12.164;2023-06-22T07:39:26;10.38;;;6.78;;
68247;SDS011;55064;49.636;12.164;2023-06-22T07:41:51;10.23;;;6.20;;
68247;SDS011;55064;49.636;12.164;2023-06-22T07:44:19;10.00;;;6.55;;
68247;SDS011;55064;49.636;12.164;2023-06-22T07:46:46;12.80;;;6.53;;
68247;SDS011;55064;49.636;12.164;2023-06-22T07:49:13;11.13;;;6.80;;
68247;SDS011;55064;49.636;12.164;2023-06-22T07:51:38;10.13;;;6.60;;
68247;SDS011;55064;49.636;12.164;2023-06-22T07:54:04;10.63;;;6.80;;
68247;SDS011;55064;49.636;12.164;2023-06-22T07:56:38;12.05;;;7.03;;
68247;SDS011;55064;49.636;12.164;2023-06-22T07:59:05;12.15;;;7.20;;
68247;SDS011;55064;49.636;12.164;2023-06-22T08:01:31;11.02;;;6.70;;
68247;SDS011;55064;49.636;12.164;2023-06-22T08:03:56;13.00;;;7.20;;
68247;SDS011;55064;49.636;12.164;2023-06-22T08:06:22;10.10;;;7.50;;
68247;SDS011;55064;49.636;12.164;2023-06-22T08:08:50;10.87;;;7.30;;
68247;SDS011;55064;49.636;12.164;2023-06-22T08:11:18;10.32;;;6.90;;
68247;SDS011;55064;49.636;12.164;2023-06-22T08:13:44;11.90;;;7.10;;
68247;SDS011;55064;49.636;12.164;2023-06-22T08:16:09;12.57;;;7.37;;
68247;SDS011;55064;49.636;12.164;2023-06-22T08:18:35;10.90;;;7.63;;
68247;SDS011;55064;49.636;12.164;2023-06-22T08:21:03;11.27;;;6.80;;
68247;SDS011;55064;49.636;12.164;2023-06-22T08:23:29;12.63;;;6.77;;
68247;SDS011;55064;49.636;12.164;2023-06-22T08:25:54;11.50;;;6.15;;
68247;SDS011;55064;49.636;12.164;2023-06-22T08:28:22;11.53;;;6.87;;
68247;SDS011;55064;49.636;12.164;2023-06-22T08:30:48;11.95;;;6.40;;
68247;SDS011;55064;49.636;12.164;2023-06-22T08:33:13;13.63;;;6.90;;
68247;SDS011;55064;49.636;12.164;2023-06-22T08:35:39;10.25;;;6.10;;
68247;SDS011;55064;49.636;12.164;2023-06-22T08:38:07;11.50;;;6.77;;
68247;SDS011;55064;49.636;12.164;2023-06-22T08:40:33;13.02;;;7.93;;
68247;SDS011;55064;49.636;12.164;2023-06-22T08:42:59;11.93;;;8.47;;
68247;SDS011;55064;49.636;12.164;2023-06-22T08:45:24;10.35;;;6.90;;
68247;SDS011;55064;49.636;12.164;2023-06-22T08:47:49;14.77;;;6.80;;
68247;SDS011;55064;49.636;12.164;2023-06-22T08:50:15;11.73;;;7.17;;
68247;SDS011;55064;49.636;12.164;2023-06-22T08:52:41;12.97;;;7.43;;
68247;SDS011;55064;49.636;12.164;2023-06-22T08:55:07;11.68;;;7.07;;
68247;SDS011;55064;49.636;12.164;2023-06-22T08:57:33;12.05;;;7.10;;
68247;SDS011;55064;49.636;12.164;2023-06-22T09:00:02;12.80;;;7.70;;
68247;SDS011;55064;49.636;12.164;2023-06-22T09:02:31;12.18;;;7.07;;
68247;SDS011;55064;49.636;12.164;2023-06-22T09:04:57;10.23;;;6.53;;
68247;SDS011;55064;49.636;12.164;2023-06-22T09:07:24;14.25;;;7.30;;
68247;SDS011;55064;49.636;12.164;2023-06-22T09:09:50;11.35;;;7.70;;
68247;SDS011;55064;49.636;12.164;2023-06-22T09:12:17;11.70;;;7.10;;
68247;SDS011;55064;49.636;12.164;2023-06-22T09:14:45;11.10;;;7.13;;
68247;SDS011;55064;49.636;12.164;2023-06-22T09:17:10;11.55;;;6.93;;
68247;SDS011;55064;49.636;12.164;2023-06-22T09:19:38;10.65;;;7.35;;
68247;SDS011;55064;49.636;12.164;2023-06-22T09:22:03;13.02;;;7.10;;
68247;SDS011;55064;49.636;12.164;2023-06-22T09:24:31;11.02;;;6.88;;
68247;SDS011;55064;49.636;12.164;2023-06-22T09:26:58;12.47;;;6.73;;
68247;SDS011;55064;49.636;12.164;2023-06-22T09:29:24;10.02;;;6.63;;
68247;SDS011;55064;49.636;12.164;2023-06-22T09:31:50;11.97;;;6.97;;
68247;SDS011;55064;49.636;12.164;2023-06-22T09:34:16;11.40;;;7.30;;
68247;SDS011;55064;49.636;12.164;2023-06-22T09:36:46;10.40;;;6.60;;
68247;SDS011;55064;49.636;12.164;2023-06-22T09:39:11;9.98;;;7.05;;
68247;SDS011;55064;49.636;12.164;2023-06-22T09:41:37;12.53;;;6.77;;
68247;SDS011;55064;49.636;12.164;2023-06-22T09:44:04;12.03;;;7.80;;
68247;SDS011;55064;49.636;12.164;2023-06-22T09:46:32;11.27;;;7.28;;
68247;SDS011;55064;49.636;12.164;2023-06-22T09:48:59;10.23;;;6.80;;
68247;SDS011;55064;49.636;12.164;2023-06-22T09:51:24;9.95;;;6.70;;
68247;SDS011;55064;49.636;12.164;2023-06-22T09:53:51;9.93;;;6.57;;
68247;SDS011;55064;49.636;12.164;2023-06-22T09:56:18;10.55;;;6.60;;
68247;SDS011;55064;49.636;12.164;2023-06-22T09:58:44;9.40;;;5.67;;
68247;SDS011;55064;49.636;12.164;2023-06-22T10:01:17;11.48;;;6.10;;
68247;SDS011;55064;49.636;12.164;2023-06-22T10:03:43;9.97;;;6.07;;
68247;SDS011;55064;49.636;12.164;2023-06-22T10:06:08;9.47;;;5.90;;
68247;SDS011;55064;49.636;12.164;2023-06-22T10:08:38;11.57;;;6.10;;
68247;SDS011;55064;49.636;12.164;2023-06-22T10:11:06;10.25;;;5.75;;
68247;SDS011;55064;49.636;12.164;2023-06-22T10:13:33;11.13;;;5.85;;
68247;SDS011;55064;49.636;12.164;2023-06-22T10:15:59;8.00;;;5.60;;
68247;SDS011;55064;49.636;12.164;2023-06-22T10:18:24;8.60;;;5.50;;
68247;SDS011;55064;49.636;12.164;2023-06-22T10:20:50;10.40;;;5.73;;
68247;SDS011;55064;49.636;12.164;2023-06-22T10:23:19;10.38;;;6.20;;
68247;SDS011;55064;49.636;12.164;2023-06-22T10:25:47;10.15;;;6.25;;
68247;SDS011;55064;49.636;12.164;2023-06-22T10:28:13;10.77;;;6.43;;
68247;SDS011;55064;49.636;12.164;2023-06-22T10:30:39;10.35;;;6.00;;
68247;SDS011;55064;49.636;12.164;2023-06-22T10:33:08;9.00;;;5.25;;
68247;SDS011;55064;49.636;12.164;2023-06-22T10:35:35;9.85;;;5.82;;
68247;SDS011;55064;49.636;12.164;2023-06-22T10:38:04;12.00;;;6.13;;
68247;SDS011;55064;49.636;12.164;2023-06-22T10:40:30;9.07;;;5.78;;
68247;SDS011;55064;49.636;12.164;2023-06-22T10:42:56;9.50;;;5.40;;
68247;SDS011;55064;49.636;12.164;2023-06-22T10:45:26;10.57;;;6.13;;
68247;SDS011;55064;49.636;12.164;2023-06-22T10:47:52;13.05;;;6.05;;
68247;SDS011;55064;49.636;12.164;2023-06-22T10:50:17;12.00;;;6.07;;
68247;SDS011;55064;49.636;12.164;2023-06-22T10:52:45;10.00;;;5.90;;
68247;SDS011;55064;49.636;12.164;2023-06-22T10:55:10;8.50;;;5.57;;
68247;SDS011;55064;49.636;12.164;2023-06-22T10:57:36;9.82;;;5.93;;
68247;SDS011;55064;49.636;12.164;2023-06-22T11:00:02;9.10;;;6.40;;
68247;SDS011;55064;49.636;12.164;2023-06-22T11:02:31;11.38;;;6.10;;
68247;SDS011;55064;49.636;12.164;2023-06-22T11:04:58;11.97;;;6.23;;
68247;SDS011;55064;49.636;12.164;2023-06-22T11:07:25;11.13;;;6.47;;
68247;SDS011;55064;49.636;12.164;2023-06-22T11:09:55;10.50;;;6.45;;
68247;SDS011;55064;49.636;12.164;2023-06-22T11:12:20;10.02;;;6.40;;
68247;SDS011;55064;49.636;12.164;2023-06-22T11:14:46;10.90;;;6.37;;
68247;SDS011;55064;49.636;12.164;2023-06-22T11:17:11;8.83;;;6.23;;
68247;SDS011;55064;49.636;12.164;2023-06-22T11:19:36;13.23;;;6.90;;
68247;SDS011;55064;49.636;12.164;2023-06-22T11:22:02;11.18;;;6.50;;
68247;SDS011;55064;49.636;12.164;2023-06-22T11:24:28;10.53;;;6.13;;
68247;SDS011;55064;49.636;12.164;2023-06-22T11:26:54;10.85;;;6.63;;
68247;SDS011;55064;49.636;12.164;2023-06-22T11:29:19;10.73;;;6.70;;
68247;SDS011;55064;49.636;12.164;2023-06-22T11:31:46;9.63;;;7.30;;
68247;SDS011;55064;49.636;12.164;2023-06-22T11:34:11;10.18;;;6.55;;
68247;SDS011;55064;49.636;12.164;2023-06-22T11:36:36;10.50;;;6.80;;
68247;SDS011;55064;49.636;12.164;2023-06-22T11:39:02;10.13;;;7.10;;
68247;SDS011;55064;49.636;12.164;2023-06-22T11:41:30;9.40;;;6.57;;
68247;SDS011;55064;49.636;12.164;2023-06-22T11:43:55;12.48;;;7.30;;
68247;SDS011;55064;49.636;12.164;2023-06-22T11:46:20;18.23;;;6.90;;
68247;SDS011;55064;49.636;12.164;2023-06-22T11:48:46;11.53;;;6.70;;
68247;SDS011;55064;49.636;12.164;2023-06-22T11:51:11;11.90;;;7.33;;
68247;SDS011;55064;49.636;12.164;2023-06-22T11:53:37;9.90;;;7.03;;
68247;SDS011;55064;49.636;12.164;2023-06-22T11:56:02;10.60;;;6.93;;
68247;SDS011;55064;49.636;12.164;2023-06-22T11:58:27;12.07;;;6.93;;
68247;SDS011;55064;49.636;12.164;2023-06-22T12:00:53;9.37;;;6.33;;
68247;SDS011;55064;49.636;12.164;2023-06-22T12:03:21;10.27;;;6.45;;
68247;SDS011;55064;49.636;12.164;2023-06-22T12:05:47;9.57;;;6.60;;
68247;SDS011;55064;49.636;12.164;2023-06-22T12:08:13;13.32;;;6.90;;
68247;SDS011;55064;49.636;12.164;2023-06-22T12:10:38;10.27;;;6.83;;
68247;SDS011;55064;49.636;12.164;2023-06-22T12:13:04;10.98;;;7.10;;
68247;SDS011;55064;49.636;12.164;2023-06-22T12:15:31;10.67;;;6.97;;
68247;SDS011;55064;49.636;12.164;2023-06-22T12:17:57;11.85;;;6.95;;
68247;SDS011;55064;49.636;12.164;2023-06-22T12:20:22;11.40;;;7.43;;
68247;SDS011;55064;49.636;12.164;2023-06-22T12:22:50;11.47;;;7.10;;
68247;SDS011;55064;49.636;12.164;2023-06-22T12:25:17;11.77;;;7.22;;
68247;SDS011;55064;49.636;12.164;2023-06-22T12:27:45;12.07;;;6.97;;
68247;SDS011;55064;49.636;12.164;2023-06-22T12:30:10;10.55;;;7.55;;
68247;SDS011;55064;49.636;12.164;2023-06-22T12:32:35;11.40;;;7.23;;
68247;SDS011;55064;49.636;12.164;2023-06-22T12:35:03;10.63;;;6.97;;
68247;SDS011;55064;49.636;12.164;2023-06-22T12:37:31;10.40;;;6.70;;
68247;SDS011;55064;49.636;12.164;2023-06-22T12:39:57;11.27;;;7.15;;
68247;SDS011;55064;49.636;12.164;2023-06-22T12:42:23;10.93;;;7.50;;
68247;SDS011;55064;49.636;12.164;2023-06-22T12:44:50;11.40;;;7.15;;
68247;SDS011;55064;49.636;12.164;2023-06-22T12:47:15;10.82;;;7.65;;
68247;SDS011;55064;49.636;12.164;2023-06-22T12:49:41;14.87;;;7.40;;
68247;SDS011;55064;49.636;12.164;2023-06-22T12:52:10;11.27;;;7.20;;
68247;SDS011;55064;49.636;12.164;2023-06-22T12:54:37;10.57;;;6.63;;
68247;SDS011;55064;49.636;12.164;2023-06-22T12:57:02;11.07;;;7.35;;
68247;SDS011;55064;49.636;12.164;2023-06-22T12:59:28;11.47;;;7.07;;
68247;SDS011;55064;49.636;12.164;2023-06-22T13:01:56;12.05;;;7.05;;
68247;SDS011;55064;49.636;12.164;2023-06-22T13:04:24;12.05;;;6.93;;
68247;SDS011;55064;49.636;12.164;2023-06-22T13:06:49;11.73;;;7.10;;
68247;SDS011;55064;49.636;12.164;2023-06-22T13:09:18;12.57;;;7.20;;
68247;SDS011;55064;49.636;12.164;2023-06-22T13:11:43;13.43;;;6.78;;
68247;SDS011;55064;49.636;12.164;2023-06-22T13:14:09;15.13;;;6.97;;
68247;SDS011;55064;49.636;12.164;2023-06-22T13:16:35;9.40;;;6.90;;
68247;SDS011;55064;49.636;12.164;2023-06-22T13:19:00;10.17;;;6.67;;
68247;SDS011;55064;49.636;12.164;2023-06-22T13:21:25;9.77;;;6.90;;
68247;SDS011;55064;49.636;12.164;2023-06-22T13:23:51;13.43;;;7.20;;
68247;SDS011;55064;49.636;12.164;2023-06-22T13:26:16;11.37;;;6.93;;
68247;SDS011;55064;49.636;12.164;2023-06-22T13:28:42;11.57;;;7.03;;
68247;SDS011;55064;49.636;12.164;2023-06-22T13:31:07;11.73;;;7.10;;
68247;SDS011;55064;49.636;12.164;2023-06-22T13:33:33;10.27;;;7.07;;
68247;SDS011;55064;49.636;12.164;2023-06-22T13:36:00;15.05;;;7.22;;
68247;SDS011;55064;49.636;12.164;2023-06-22T13:38:29;10.70;;;6.88;;
68247;SDS011;55064;49.636;12.164;2023-06-22T13:40:56;12.03;;;7.30;;
68247;SDS011;55064;49.636;12.164;2023-06-22T13:43:23;12.77;;;7.55;;
68247;SDS011;55064;49.636;12.164;2023-06-22T13:45:52;10.65;;;7.20;;
68247;SDS011;55064;49.636;12.164;2023-06-22T13:48:18;11.75;;;6.78;;
68247;SDS011;55064;49.636;12.164;2023-06-22T13:50:44;13.23;;;7.00;;
68247;SDS011;55064;49.636;12.164;2023-06-22T13:53:10;13.03;;;7.43;;
68247;SDS011;55064;49.636;12.164;2023-06-22T13:55:35;12.35;;;7.07;;
68247;SDS011;55064;49.636;12.164;2023-06-22T13:58:01;11.63;;;7.60;;
68247;SDS011;55064;49.636;12.164;2023-06-22T14:00:31;14.75;;;7.88;;
68247;SDS011;55064;49.636;12.164;2023-06-22T14:02:56;12.17;;;7.27;;
68247;SDS011;55064;49.636;12.164;2023-06-22T14:05:24;13.18;;;7.15;;
68247;SDS011;55064;49.636;12.164;2023-06-22T14:07:50;9.17;;;7.10;;
68247;SDS011;55064;49.636;12.164;2023-06-22T14:10:20;12.80;;;7.63;;
68247;SDS011;55064;49.636;12.164;2023-06-22T14:12:45;12.25;;;7.25;;
68247;SDS011;55064;49.636;12.164;2023-06-22T14:15:13;12.43;;;7.55;;
68247;SDS011;55064;49.636;12.164;2023-06-22T14:17:38;10.77;;;7.40;;
68247;SDS011;55064;49.636;12.164;2023-06-22T14:20:04;12.10;;;6.90;;
68247;SDS011;55064;49.636;12.164;2023-06-22T14:22:33;11.65;;;7.18;;
68247;SDS011;55064;49.636;12.164;2023-06-22T14:25:00;14.48;;;7.35;;
68247;SDS011;55064;49.636;12.164;2023-06-22T14:27:27;10.90;;;7.40;;
68247;SDS011;55064;49.636;12.164;2023-06-22T14:29:53;13.90;;;7.20;;
68247;SDS011;55064;49.636;12.164;2023-06-22T14:32:19;11.65;;;7.07;;
68247;SDS011;55064;49.636;12.164;2023-06-22T14:34:45;12.87;;;7.40;;
68247;SDS011;55064;49.636;12.164;2023-06-22T14:37:11;12.02;;;7.88;;
68247;SDS011;55064;49.636;12.164;2023-06-22T14:39:37;12.68;;;7.47;;
68247;SDS011;55064;49.636;12.164;2023-06-22T14:42:09;12.73;;;8.23;;